Time,TemperatureF,DewpointF,PressureIn,WindDirection,WindDirectionDegrees,WindSpeedMPH,WindSpeedGustMPH,Humidity,HourlyPrecipIn,Conditions,Clouds,dailyrainin,SoftwareType,DateUTC
2013-04-01 00:01:00,46.5,33.4,29.68,NW,315,15.0,15.0,60,0.00,,,0.00,Wunderground v.1.15,2013-04-01 04:01:00,
2013-04-01 00:10:00,45.9,32.8,29.68,WNW,296,15.0,18.0,60,0.00,,,0.00,Wunderground v.1.15,2013-04-01 04:10:00,
2013-04-01 00:15:00,45.4,32.7,29.68,West,279,13.0,13.0,61,0.00,,,0.00,Wunderground v.1.15,2013-04-01 04:15:00,
2013-04-01 00:20:00,45.1,32.4,29.68,WNW,286,12.0,13.0,61,0.00,,,0.00,Wunderground v.1.15,2013-04-01 04:20:00,
2013-04-01 00:25:00,44.7,32.1,29.68,WNW,291,12.0,12.0,61,0.00,,,0.00,Wunderground v.1.15,2013-04-01 04:25:00,
2013-04-01 00:35:00,44.1,32.3,29.69,WNW,298,12.0,15.0,63,0.00,,,0.00,Wunderground v.1.15,2013-04-01 04:35:00,
2013-04-01 00:40:00,43.8,32.0,29.69,WNW,284,14.0,25.0,63,0.00,,,0.00,Wunderground v.1.15,2013-04-01 04:40:00,
2013-04-01 00:50:00,43.0,31.6,29.69,NW,305,15.0,20.0,64,0.00,,,0.00,Wunderground v.1.15,2013-04-01 04:50:00,
2013-04-01 01:00:00,41.8,30.5,29.70,NW,304,17.0,17.0,64,0.00,,,0.00,Wunderground v.1.15,2013-04-01 05:00:00,
2013-04-01 01:10:00,41.1,29.1,29.71,WNW,301,15.0,17.0,62,0.00,,,0.00,Wunderground v.1.15,2013-04-01 05:10:00,
2013-04-01 01:15:00,40.9,28.5,29.71,WNW,290,14.0,17.0,61,0.00,,,0.00,Wunderground v.1.15,2013-04-01 05:15:00,
2013-04-01 01:20:00,40.8,28.4,29.71,WNW,296,15.0,15.0,61,0.00,,,0.00,Wunderground v.1.15,2013-04-01 05:20:00,
2013-04-01 01:25:00,40.4,28.0,29.71,WNW,285,13.0,15.0,61,0.00,,,0.00,Wunderground v.1.15,2013-04-01 05:25:00,
2013-04-01 01:35:00,40.0,27.6,29.71,WNW,285,12.0,13.0,61,0.00,,,0.00,Wunderground v.1.15,2013-04-01 05:35:00,
2013-04-01 01:45:00,39.6,27.6,29.72,WNW,290,12.0,12.0,62,0.00,,,0.00,Wunderground v.1.15,2013-04-01 05:45:00,
2013-04-01 01:50:00,39.3,27.7,29.72,WNW,288,11.0,11.0,63,0.00,,,0.00,Wunderground v.1.15,2013-04-01 05:50:00,
2013-04-01 02:00:00,39.0,27.8,29.72,West,264,10.0,11.0,64,0.00,,,0.00,Wunderground v.1.15,2013-04-01 06:00:00,
2013-04-01 02:10:00,38.4,27.7,29.72,WNW,291,8.0,11.0,65,0.00,,,0.00,Wunderground v.1.15,2013-04-01 06:10:00,
2013-04-01 02:20:00,37.9,27.2,29.72,West,273,7.0,7.0,65,0.00,,,0.00,Wunderground v.1.15,2013-04-01 06:20:00,
2013-04-01 02:30:00,37.7,27.7,29.73,West,278,6.0,6.0,67,0.00,,,0.00,Wunderground v.1.15,2013-04-01 06:30:00,
2013-04-01 02:35:00,37.6,27.6,29.73,West,281,7.0,12.0,67,0.00,,,0.00,Wunderground v.1.15,2013-04-01 06:35:00,
2013-04-01 02:45:00,37.5,27.5,29.73,West,281,7.0,9.0,67,0.00,,,0.00,Wunderground v.1.15,2013-04-01 06:45:00,
2013-04-01 02:50:00,37.4,27.4,29.74,West,265,7.0,9.0,67,0.00,,,0.00,Wunderground v.1.15,2013-04-01 06:50:00,
2013-04-01 03:00:00,36.9,27.3,29.74,West,279,6.0,6.0,68,0.00,,,0.00,Wunderground v.1.15,2013-04-01 07:00:00,
2013-04-01 03:10:00,36.5,27.3,29.75,West,272,5.0,5.0,69,0.00,,,0.00,Wunderground v.1.15,2013-04-01 07:10:00,
2013-04-01 03:20:00,36.8,27.9,29.75,West,268,7.0,9.0,70,0.00,,,0.00,Wunderground v.1.15,2013-04-01 07:20:00,
2013-04-01 03:30:00,36.7,27.8,29.75,WNW,288,8.0,10.0,70,0.00,,,0.00,Wunderground v.1.15,2013-04-01 07:30:00,
2013-04-01 03:35:00,36.8,27.9,29.75,West,273,8.0,10.0,70,0.00,,,0.00,Wunderground v.1.15,2013-04-01 07:35:00,
2013-04-01 03:40:00,36.6,27.7,29.75,WNW,287,9.0,9.0,70,0.00,,,0.00,Wunderground v.1.15,2013-04-01 07:40:00,
2013-04-01 03:50:00,36.3,27.8,29.76,WNW,288,8.0,8.0,71,0.00,,,0.00,Wunderground v.1.15,2013-04-01 07:50:00,
2013-04-01 04:00:00,36.5,28.0,29.76,West,280,8.0,8.0,71,0.00,,,0.00,Wunderground v.1.15,2013-04-01 08:00:00,
2013-04-01 04:10:00,36.9,28.4,29.77,NW,304,8.0,9.0,71,0.00,,,0.00,Wunderground v.1.15,2013-04-01 08:10:00,
2013-04-01 04:20:00,36.0,26.8,29.78,NW,318,13.0,16.0,69,0.00,,,0.00,Wunderground v.1.15,2013-04-01 08:20:00,
2013-04-01 04:25:00,35.0,26.9,29.79,North,360,16.0,16.0,72,0.00,,,0.00,Wunderground v.1.15,2013-04-01 08:25:00,
2013-04-01 04:35:00,33.9,27.4,29.79,NW,321,13.0,15.0,77,0.00,,,0.00,Wunderground v.1.15,2013-04-01 08:35:00,
2013-04-01 04:45:00,33.5,27.4,29.80,NW,306,8.0,11.0,78,0.00,,,0.00,Wunderground v.1.15,2013-04-01 08:45:00,
2013-04-01 04:50:00,33.7,26.6,29.80,NW,306,8.0,9.0,75,0.00,,,0.00,Wunderground v.1.15,2013-04-01 08:50:00,
2013-04-01 05:00:00,34.1,26.7,29.80,NW,314,8.0,8.0,74,0.00,,,0.00,Wunderground v.1.15,2013-04-01 09:00:00,
2013-04-01 05:10:00,34.1,26.7,29.81,NW,321,7.0,8.0,74,0.00,,,0.00,Wunderground v.1.15,2013-04-01 09:10:00,
2013-04-01 05:15:00,34.0,26.6,29.82,NW,309,8.0,10.0,74,0.00,,,0.00,Wunderground v.1.15,2013-04-01 09:15:00,
2013-04-01 05:25:00,33.4,26.0,29.82,NW,321,9.0,9.0,74,0.00,,,0.00,Wunderground v.1.15,2013-04-01 09:25:00,
2013-04-01 05:35:00,32.9,25.2,29.83,NW,321,10.0,12.0,73,0.00,,,0.00,Wunderground v.1.15,2013-04-01 09:35:00,
2013-04-01 05:45:00,32.6,24.6,29.84,NW,307,10.0,11.0,72,0.00,,,0.00,Wunderground v.1.15,2013-04-01 09:45:00,
2013-04-01 05:55:00,32.3,22.6,29.84,NW,321,12.0,14.0,67,0.00,,,0.00,Wunderground v.1.15,2013-04-01 09:55:00,
2013-04-01 06:00:00,32.0,22.6,29.85,NW,322,10.0,10.0,68,0.00,,,0.00,Wunderground v.1.15,2013-04-01 10:00:00,
2013-04-01 06:10:00,31.4,22.4,29.85,NW,309,7.0,7.0,69,0.00,,,0.00,Wunderground v.1.15,2013-04-01 10:10:00,
2013-04-01 06:20:00,30.7,23.1,29.86,WNW,293,5.0,6.0,73,0.00,,,0.00,Wunderground v.1.15,2013-04-01 10:20:00,
2013-04-01 06:30:00,30.6,24.2,29.86,WNW,302,6.0,8.0,77,0.00,,,0.00,Wunderground v.1.15,2013-04-01 10:30:00,
2013-04-01 06:40:00,30.7,23.7,29.87,NW,306,8.0,8.0,75,0.00,,,0.00,Wunderground v.1.15,2013-04-01 10:40:00,
2013-04-01 06:45:00,30.6,23.6,29.87,NW,310,8.0,8.0,75,0.00,,,0.00,Wunderground v.1.15,2013-04-01 10:45:00,
2013-04-01 06:55:00,30.5,23.2,29.88,WNW,302,8.0,9.0,74,0.00,,,0.00,Wunderground v.1.15,2013-04-01 10:55:00,
2013-04-01 07:00:00,30.5,22.9,29.88,WNW,293,8.0,10.0,73,0.00,,,0.00,Wunderground v.1.15,2013-04-01 11:00:00,
2013-04-01 07:10:00,30.3,22.0,29.89,NW,305,9.0,9.0,71,0.00,,,0.00,Wunderground v.1.15,2013-04-01 11:10:00,
2013-04-01 07:20:00,30.4,21.1,29.89,NW,308,9.0,9.0,68,0.00,,,0.00,Wunderground v.1.15,2013-04-01 11:20:00,
2013-04-01 07:30:00,29.8,21.5,29.90,WNW,284,6.0,6.0,71,0.00,,,0.00,Wunderground v.1.15,2013-04-01 11:30:00,
2013-04-01 07:35:00,29.6,22.3,29.91,WNW,297,6.0,8.0,74,0.00,,,0.00,Wunderground v.1.15,2013-04-01 11:35:00,
2013-04-01 07:45:00,29.8,21.9,29.91,WNW,283,6.0,7.0,72,0.00,,,0.00,Wunderground v.1.15,2013-04-01 11:45:00,
2013-04-01 07:50:00,29.9,22.0,29.92,WNW,296,6.0,9.0,72,0.00,,,0.00,Wunderground v.1.15,2013-04-01 11:50:00,
2013-04-01 08:00:00,30.2,21.2,29.92,WNW,290,7.0,11.0,69,0.00,,,0.00,Wunderground v.1.15,2013-04-01 12:00:00,
2013-04-01 08:10:00,30.3,18.8,29.93,NW,315,10.0,11.0,62,0.00,,,0.00,Wunderground v.1.15,2013-04-01 12:10:00,
2013-04-01 08:15:00,30.5,18.3,29.93,NW,319,12.0,14.0,60,0.00,,,0.00,Wunderground v.1.15,2013-04-01 12:15:00,
2013-04-01 08:20:00,30.7,17.7,29.93,NNW,327,12.0,12.0,58,0.00,,,0.00,Wunderground v.1.15,2013-04-01 12:20:00,
2013-04-01 08:30:00,31.2,18.1,29.94,NW,319,10.0,11.0,58,0.00,,,0.00,Wunderground v.1.15,2013-04-01 12:30:00,
2013-04-01 08:35:00,31.4,17.9,29.94,NW,316,9.0,11.0,57,0.00,,,0.00,Wunderground v.1.15,2013-04-01 12:35:00,
2013-04-01 08:40:00,31.5,18.0,29.94,NW,314,8.0,8.0,57,0.00,,,0.00,Wunderground v.1.15,2013-04-01 12:40:00,
2013-04-01 08:50:00,31.7,16.9,29.94,NW,311,10.0,17.0,54,0.00,,,0.00,Wunderground v.1.15,2013-04-01 12:50:00,
2013-04-01 09:00:00,32.2,17.0,29.95,NW,326,11.0,16.0,53,0.00,,,0.00,Wunderground v.1.15,2013-04-01 13:00:00,
2013-04-01 09:10:00,32.6,16.9,29.95,West,277,11.0,17.0,52,0.00,,,0.00,Wunderground v.1.15,2013-04-01 13:10:00,
2013-04-01 09:20:00,32.9,16.7,29.95,West,274,14.0,16.0,51,0.00,,,0.00,Wunderground v.1.15,2013-04-01 13:20:00,
2013-04-01 09:30:00,33.0,16.8,29.95,WNW,290,15.0,15.0,51,0.00,,,0.00,Wunderground v.1.15,2013-04-01 13:30:00,
2013-04-01 09:35:00,33.2,15.6,29.95,NW,317,15.0,15.0,48,0.00,,,0.00,Wunderground v.1.15,2013-04-01 13:35:00,
2013-04-01 09:45:00,33.9,17.7,29.96,NW,311,14.0,16.0,51,0.00,,,0.00,Wunderground v.1.15,2013-04-01 13:45:00,
2013-04-01 09:55:00,34.1,15.5,29.95,NW,313,16.0,16.0,46,0.00,,,0.00,Wunderground v.1.15,2013-04-01 13:55:00,
2013-04-01 10:00:00,34.3,15.6,29.95,NNW,332,16.0,16.0,46,0.00,,,0.00,Wunderground v.1.15,2013-04-01 14:00:00,
2013-04-01 10:10:00,34.7,13.9,29.96,WNW,292,17.0,17.0,42,0.00,,,0.00,Wunderground v.1.15,2013-04-01 14:10:00,
2013-04-01 10:20:00,34.7,13.4,29.96,NW,304,18.0,18.0,41,0.00,,,0.00,Wunderground v.1.15,2013-04-01 14:20:00,
2013-04-01 10:25:00,35.0,12.5,29.96,NW,315,17.0,18.0,39,0.00,,,0.00,Wunderground v.1.15,2013-04-01 14:25:00,
2013-04-01 10:35:00,35.1,13.2,29.97,NNW,339,18.0,19.0,40,0.00,,,0.00,Wunderground v.1.15,2013-04-01 14:35:00,
2013-04-01 10:45:00,35.5,13.0,29.97,NNW,330,17.0,20.0,39,0.00,,,0.00,Wunderground v.1.15,2013-04-01 14:45:00,
2013-04-01 10:50:00,35.9,13.3,29.97,NW,310,15.0,18.0,39,0.00,,,0.00,Wunderground v.1.15,2013-04-01 14:50:00,
2013-04-01 11:00:00,36.3,13.7,29.98,NNW,334,14.0,14.0,39,0.00,,,0.00,Wunderground v.1.15,2013-04-01 15:00:00,
2013-04-01 11:10:00,36.2,12.4,29.98,West,275,14.0,16.0,37,0.00,,,0.00,Wunderground v.1.15,2013-04-01 15:10:00,
2013-04-01 11:20:00,36.0,11.6,29.98,WNW,297,16.0,16.0,36,0.00,,,0.00,Wunderground v.1.15,2013-04-01 15:20:00,
2013-04-01 11:30:00,36.5,12.0,29.98,WNW,295,16.0,16.0,36,0.00,,,0.00,Wunderground v.1.15,2013-04-01 15:30:00,
2013-04-01 11:35:00,36.7,11.6,29.99,NW,306,14.0,16.0,35,0.00,,,0.00,Wunderground v.1.15,2013-04-01 15:35:00,
2013-04-01 11:40:00,36.7,12.2,29.99,WNW,292,13.0,13.0,36,0.00,,,0.00,Wunderground v.1.15,2013-04-01 15:40:00,
2013-04-01 11:50:00,36.8,11.0,29.99,NW,305,16.0,16.0,34,0.00,,,0.00,Wunderground v.1.15,2013-04-01 15:50:00,
2013-04-01 12:00:00,37.4,10.9,29.99,West,273,14.0,14.0,33,0.00,,,0.00,Wunderground v.1.15,2013-04-01 16:00:00,
2013-04-01 12:10:00,37.0,10.5,29.99,WNW,288,15.0,15.0,33,0.00,,,0.00,Wunderground v.1.15,2013-04-01 16:10:00,
2013-04-01 12:20:00,37.8,11.9,29.99,WNW,296,14.0,15.0,34,0.00,,,0.00,Wunderground v.1.15,2013-04-01 16:20:00,
2013-04-01 12:25:00,38.2,11.6,29.99,WNW,283,14.0,15.0,33,0.00,,,0.00,Wunderground v.1.15,2013-04-01 16:25:00,
2013-04-01 12:35:00,38.2,12.3,29.99,WNW,300,14.0,18.0,34,0.00,,,0.00,Wunderground v.1.15,2013-04-01 16:35:00,
2013-04-01 12:40:00,38.4,12.4,29.99,WNW,285,14.0,14.0,34,0.00,,,0.00,Wunderground v.1.15,2013-04-01 16:40:00,
2013-04-01 12:50:00,38.8,13.4,29.99,West,279,12.0,12.0,35,0.00,,,0.00,Wunderground v.1.15,2013-04-01 16:50:00,
2013-04-01 13:00:00,38.9,11.5,29.99,WSW,257,14.0,14.0,32,0.00,,,0.00,Wunderground v.1.15,2013-04-01 17:00:00,
2013-04-01 13:10:00,38.0,11.4,29.99,NW,311,15.0,15.0,33,0.00,,,0.00,Wunderground v.1.15,2013-04-01 17:10:00,
2013-04-01 13:19:00,39.1,12.4,29.99,West,270,12.0,12.0,33,0.00,,,0.00,Wunderground v.1.15,2013-04-01 17:19:00,
2013-04-01 13:24:00,38.9,12.9,29.99,NW,316,14.0,14.0,34,0.00,,,0.00,Wunderground v.1.15,2013-04-01 17:24:00,
2013-04-01 13:34:00,39.3,13.9,29.99,West,267,14.0,21.0,35,0.00,,,0.00,Wunderground v.1.15,2013-04-01 17:34:00,
2013-04-01 13:44:00,39.1,13.1,29.99,WNW,303,14.0,19.0,34,0.00,,,0.00,Wunderground v.1.15,2013-04-01 17:44:00,
2013-04-01 13:49:00,38.8,12.8,29.99,NW,315,15.0,15.0,34,0.00,,,0.00,Wunderground v.1.15,2013-04-01 17:49:00,
2013-04-01 13:59:00,39.3,13.2,29.99,West,277,14.0,15.0,34,0.00,,,0.00,Wunderground v.1.15,2013-04-01 17:59:00,
2013-04-01 14:09:00,39.7,10.0,29.99,West,271,14.0,14.0,29,0.00,,,0.00,Wunderground v.1.15,2013-04-01 18:09:00,
2013-04-01 14:14:00,39.4,11.2,29.99,WNW,292,15.0,15.0,31,0.00,,,0.00,Wunderground v.1.15,2013-04-01 18:14:00,
2013-04-01 14:24:00,40.3,12.7,29.99,NW,321,15.0,16.0,32,0.00,,,0.00,Wunderground v.1.15,2013-04-01 18:24:00,
2013-04-01 14:29:00,40.1,11.1,29.99,West,269,15.0,15.0,30,0.00,,,0.00,Wunderground v.1.15,2013-04-01 18:29:00,
2013-04-01 14:39:00,39.3,11.9,29.99,WNW,293,14.0,14.0,32,0.00,,,0.00,Wunderground v.1.15,2013-04-01 18:39:00,
2013-04-01 14:44:00,39.6,12.1,29.99,WNW,302,16.0,16.0,32,0.00,,,0.00,Wunderground v.1.15,2013-04-01 18:44:00,
2013-04-01 14:54:00,40.1,11.8,29.99,WNW,284,16.0,22.0,31,0.00,,,0.00,Wunderground v.1.15,2013-04-01 18:54:00,
2013-04-01 14:59:00,40.2,11.2,29.99,WNW,286,16.0,16.0,30,0.00,,,0.00,Wunderground v.1.15,2013-04-01 18:59:00,
2013-04-01 15:09:00,39.8,12.3,29.98,NW,317,14.0,16.0,32,0.00,,,0.00,Wunderground v.1.15,2013-04-01 19:09:00,
2013-04-01 15:19:00,39.2,11.8,29.99,West,273,15.0,15.0,32,0.00,,,0.00,Wunderground v.1.15,2013-04-01 19:19:00,
2013-04-01 15:29:00,40.8,12.5,29.99,West,275,14.0,14.0,31,0.00,,,0.00,Wunderground v.1.15,2013-04-01 19:29:00,
2013-04-01 15:34:00,41.4,11.5,29.99,NW,317,15.0,15.0,29,0.00,,,0.00,Wunderground v.1.15,2013-04-01 19:34:00,
2013-04-01 15:39:00,41.9,11.1,29.99,West,265,15.0,17.0,28,0.00,,,0.00,Wunderground v.1.15,2013-04-01 19:39:00,
2013-04-01 15:49:00,41.0,11.1,29.99,WNW,285,17.0,22.0,29,0.00,,,0.00,Wunderground v.1.15,2013-04-01 19:49:00,
2013-04-01 15:54:00,40.0,11.0,29.99,WNW,290,16.0,22.0,30,0.00,,,0.00,Wunderground v.1.15,2013-04-01 19:54:00,
2013-04-01 15:59:00,40.6,13.0,29.99,WNW,290,14.0,21.0,32,0.00,,,0.00,Wunderground v.1.15,2013-04-01 19:59:00,
2013-04-01 16:09:00,40.6,11.5,29.99,West,271,16.0,16.0,30,0.00,,,0.00,Wunderground v.1.15,2013-04-01 20:09:00,
2013-04-01 16:19:00,40.8,12.5,29.99,West,265,16.0,17.0,31,0.00,,,0.00,Wunderground v.1.15,2013-04-01 20:19:00,
2013-04-01 16:29:00,41.3,12.1,29.99,WNW,284,14.0,14.0,30,0.00,,,0.00,Wunderground v.1.15,2013-04-01 20:29:00,
2013-04-01 16:39:00,40.7,11.6,29.99,WNW,298,16.0,16.0,30,0.00,,,0.00,Wunderground v.1.15,2013-04-01 20:39:00,
2013-04-01 16:49:00,40.7,12.4,29.99,WNW,291,13.0,14.0,31,0.00,,,0.00,Wunderground v.1.15,2013-04-01 20:49:00,
2013-04-01 16:54:00,39.8,12.3,30.00,WNW,298,15.0,15.0,32,0.00,,,0.00,Wunderground v.1.15,2013-04-01 20:54:00,
2013-04-01 16:59:00,39.7,12.2,29.99,NW,311,17.0,17.0,32,0.00,,,0.00,Wunderground v.1.15,2013-04-01 20:59:00,
2013-04-01 17:09:00,40.4,13.5,29.99,NW,314,14.0,17.0,33,0.00,,,0.00,Wunderground v.1.15,2013-04-01 21:09:00,
2013-04-01 17:19:00,40.6,11.5,30.00,WNW,290,17.0,18.0,30,0.00,,,0.00,Wunderground v.1.15,2013-04-01 21:19:00,
2013-04-01 17:29:00,39.9,10.9,30.00,WNW,284,14.0,14.0,30,0.00,,,0.00,Wunderground v.1.15,2013-04-01 21:29:00,
2013-04-01 17:34:00,39.2,11.8,30.00,NW,311,13.0,17.0,32,0.00,,,0.00,Wunderground v.1.15,2013-04-01 21:34:00,
2013-04-01 17:44:00,39.7,11.5,30.00,NW,304,14.0,14.0,31,0.00,,,0.00,Wunderground v.1.15,2013-04-01 21:44:00,
2013-04-01 17:49:00,39.6,11.4,30.00,WNW,296,14.0,17.0,31,0.00,,,0.00,Wunderground v.1.15,2013-04-01 21:49:00,
2013-04-01 17:59:00,39.0,11.6,30.00,WNW,283,14.0,19.0,32,0.00,,,0.00,Wunderground v.1.15,2013-04-01 21:59:00,
2013-04-01 18:04:00,38.4,11.1,30.01,WNW,303,15.0,19.0,32,0.00,,,0.00,Wunderground v.1.15,2013-04-01 22:04:00,
2013-04-01 18:14:00,38.2,11.6,30.01,WNW,287,17.0,17.0,33,0.00,,,0.00,Wunderground v.1.15,2013-04-01 22:14:00,
2013-04-01 18:24:00,39.0,11.6,30.01,WNW,298,16.0,17.0,32,0.00,,,0.00,Wunderground v.1.15,2013-04-01 22:24:00,
2013-04-01 18:34:00,38.4,11.8,30.01,West,281,16.0,19.0,33,0.00,,,0.00,Wunderground v.1.15,2013-04-01 22:34:00,
2013-04-01 18:44:00,37.9,11.3,30.02,WNW,282,18.0,19.0,33,0.00,,,0.00,Wunderground v.1.15,2013-04-01 22:44:00,
2013-04-01 18:49:00,37.4,11.5,30.02,WNW,303,17.0,17.0,34,0.00,,,0.00,Wunderground v.1.15,2013-04-01 22:49:00,
2013-04-01 19:04:00,37.1,11.3,30.02,West,272,14.0,14.0,34,0.00,,,0.00,Wunderground v.1.15,2013-04-01 23:04:00,
2013-04-01 19:14:00,36.4,11.3,30.03,West,267,13.0,15.0,35,0.00,,,0.00,Wunderground v.1.15,2013-04-01 23:14:00,
2013-04-01 19:19:00,36.0,11.6,30.03,WNW,289,14.0,16.0,36,0.00,,,0.00,Wunderground v.1.15,2013-04-01 23:19:00,
2013-04-01 19:29:00,35.7,11.3,30.04,WNW,303,14.0,15.0,36,0.00,,,0.00,Wunderground v.1.15,2013-04-01 23:29:00,
2013-04-01 19:34:00,35.4,12.3,30.04,NW,304,14.0,14.0,38,0.00,,,0.00,Wunderground v.1.15,2013-04-01 23:34:00,
2013-04-01 19:44:00,34.7,12.2,30.04,WNW,292,14.0,20.0,39,0.00,,,0.00,Wunderground v.1.15,2013-04-01 23:44:00,
2013-04-01 19:54:00,34.1,12.3,30.05,WNW,302,13.0,13.0,40,0.00,,,0.00,Wunderground v.1.15,2013-04-01 23:54:00,
2013-04-01 19:59:00,33.7,11.9,30.05,WNW,296,11.0,11.0,40,0.00,,,0.00,Wunderground v.1.15,2013-04-01 23:59:00,
2013-04-01 20:09:00,33.0,11.8,30.05,WNW,286,14.0,17.0,41,0.00,,,0.00,Wunderground v.1.15,2013-04-02 00:09:00,
2013-04-01 20:19:00,32.4,11.8,30.06,NW,315,12.0,12.0,42,0.00,,,0.00,Wunderground v.1.15,2013-04-02 00:19:00,
2013-04-01 20:29:00,31.9,12.4,30.06,NW,309,11.0,11.0,44,0.00,,,0.00,Wunderground v.1.15,2013-04-02 00:29:00,
2013-04-01 20:39:00,31.6,12.2,30.07,NW,304,11.0,11.0,44,0.00,,,0.00,Wunderground v.1.15,2013-04-02 00:39:00,
2013-04-01 20:44:00,31.4,12.0,30.07,NW,312,11.0,11.0,44,0.00,,,0.00,Wunderground v.1.15,2013-04-02 00:44:00,
2013-04-01 20:54:00,31.2,12.3,30.07,WNW,300,11.0,11.0,45,0.00,,,0.00,Wunderground v.1.15,2013-04-02 00:54:00,
2013-04-01 20:59:00,31.1,12.2,30.07,NW,318,11.0,11.0,45,0.00,,,0.00,Wunderground v.1.15,2013-04-02 00:59:00,
2013-04-01 21:09:00,30.8,11.9,30.08,WNW,299,10.0,10.0,45,0.00,,,0.00,Wunderground v.1.15,2013-04-02 01:09:00,
2013-04-01 21:19:00,30.3,12.0,30.08,NW,313,9.0,9.0,46,0.00,,,0.00,Wunderground v.1.15,2013-04-02 01:19:00,
2013-04-01 21:29:00,30.0,12.7,30.09,NW,307,9.0,11.0,48,0.00,,,0.00,Wunderground v.1.15,2013-04-02 01:29:00,
2013-04-01 21:39:00,30.1,12.3,30.09,NW,315,12.0,12.0,47,0.00,,,0.00,Wunderground v.1.15,2013-04-02 01:39:00,
2013-04-01 21:44:00,30.0,12.2,30.09,NW,306,12.0,12.0,47,0.00,,,0.00,Wunderground v.1.15,2013-04-02 01:44:00,
2013-04-01 21:54:00,29.7,11.9,30.09,NW,309,11.0,13.0,47,0.00,,,0.00,Wunderground v.1.15,2013-04-02 01:54:00,
2013-04-01 21:59:00,29.6,12.3,30.10,NW,310,11.0,11.0,48,0.00,,,0.00,Wunderground v.1.15,2013-04-02 01:59:00,
2013-04-01 22:09:00,29.4,12.1,30.10,NW,313,11.0,13.0,48,0.00,,,0.00,Wunderground v.1.15,2013-04-02 02:09:00,
2013-04-01 22:19:00,29.1,11.8,30.10,NW,306,10.0,10.0,48,0.00,,,0.00,Wunderground v.1.15,2013-04-02 02:19:00,
2013-04-01 22:29:00,28.6,11.8,30.11,NW,310,8.0,8.0,49,0.00,,,0.00,Wunderground v.1.15,2013-04-02 02:29:00,
2013-04-01 22:34:00,28.3,12.0,30.11,NW,310,7.0,8.0,50,0.00,,,0.00,Wunderground v.1.15,2013-04-02 02:34:00,
2013-04-01 22:44:00,28.1,11.8,30.11,NW,320,8.0,8.0,50,0.00,,,0.00,Wunderground v.1.15,2013-04-02 02:44:00,
2013-04-01 22:54:00,27.8,12.0,30.11,NW,304,6.0,7.0,51,0.00,,,0.00,Wunderground v.1.15,2013-04-02 02:54:00,
2013-04-01 22:59:00,27.5,11.7,30.11,WNW,294,5.0,5.0,51,0.00,,,0.00,Wunderground v.1.15,2013-04-02 02:59:00,
2013-04-01 23:09:00,27.2,11.9,30.11,WNW,288,5.0,5.0,52,0.00,,,0.00,Wunderground v.1.15,2013-04-02 03:09:00,
2013-04-01 23:19:00,26.7,11.4,30.11,WNW,282,5.0,5.0,52,0.00,,,0.00,Wunderground v.1.15,2013-04-02 03:19:00,
2013-04-01 23:29:00,26.1,11.3,30.11,WNW,287,4.0,4.0,53,0.00,,,0.00,Wunderground v.1.15,2013-04-02 03:29:00,
2013-04-01 23:39:00,25.9,11.5,30.11,WNW,282,4.0,4.0,54,0.00,,,0.00,Wunderground v.1.15,2013-04-02 03:39:00,
2013-04-01 23:44:00,25.8,11.4,30.11,WNW,286,4.0,4.0,54,0.00,,,0.00,Wunderground v.1.15,2013-04-02 03:44:00,
2013-04-01 23:49:00,25.8,11.8,30.11,WNW,289,4.0,5.0,55,0.00,,,0.00,Wunderground v.1.15,2013-04-02 03:49:00,
2013-04-01 23:54:00,25.9,11.5,30.11,WNW,290,4.0,5.0,54,0.00,,,0.00,Wunderground v.1.15,2013-04-02 03:54:00,
2013-04-01 23:59:00,25.7,11.7,30.11,WNW,292,4.0,4.0,55,0.00,,,0.00,Wunderground v.1.15,2013-04-02 03:59:00,